createdAt,value
2023-03-19T00:00:53.896Z,17.70
2023-03-19T00:03:22.265Z,17.50
2023-03-19T00:05:54.025Z,17.40
2023-03-19T00:08:22.745Z,17.70
2023-03-19T00:10:51.041Z,17.80
2023-03-19T00:13:20.672Z,17.60
2023-03-19T00:15:48.488Z,17.50
2023-03-19T00:18:16.378Z,17.60
2023-03-19T00:20:44.723Z,17.60
2023-03-19T00:23:12.677Z,17.70
2023-03-19T00:25:40.907Z,17.40
2023-03-19T00:28:09.135Z,17.30
2023-03-19T00:30:38.661Z,17.20
2023-03-19T00:33:07.060Z,17.00
2023-03-19T00:35:35.359Z,17.10
2023-03-19T00:38:03.569Z,17.20
2023-03-19T00:40:31.312Z,16.80
2023-03-19T00:42:59.114Z,16.70
2023-03-19T00:45:27.196Z,16.90
2023-03-19T00:47:56.292Z,16.80
2023-03-19T00:50:24.987Z,16.80
2023-03-19T00:52:53.264Z,16.80
2023-03-19T00:55:20.954Z,16.80
2023-03-19T00:57:48.668Z,16.80
2023-03-19T01:00:17.666Z,16.80
2023-03-19T01:02:45.357Z,16.70
2023-03-19T01:05:14.801Z,16.80
2023-03-19T01:07:42.598Z,16.70
2023-03-19T01:10:12.026Z,16.50
2023-03-19T01:12:39.738Z,16.40
2023-03-19T01:15:08.745Z,16.50
2023-03-19T01:17:36.573Z,16.70
2023-03-19T01:20:04.516Z,16.50
2023-03-19T01:22:37.338Z,16.50
2023-03-19T01:25:06.741Z,16.20
2023-03-19T01:27:34.439Z,16.20
2023-03-19T01:30:02.511Z,16.00
2023-03-19T01:32:30.266Z,15.70
2023-03-19T01:34:58.123Z,15.80
2023-03-19T01:37:25.830Z,15.60
2023-03-19T01:39:54.892Z,15.30
2023-03-19T01:42:22.792Z,15.50
2023-03-19T01:44:50.493Z,15.70
2023-03-19T01:47:21.951Z,15.60
2023-03-19T01:49:55.073Z,15.70
2023-03-19T01:52:24.816Z,15.70
2023-03-19T01:54:55.851Z,15.60
2023-03-19T01:57:24.837Z,15.80
2023-03-19T01:59:55.948Z,15.80
2023-03-19T02:02:29.268Z,15.80
2023-03-19T02:05:01.709Z,15.90
2023-03-19T02:07:31.491Z,16.00
2023-03-19T02:10:02.139Z,16.10
2023-03-19T02:12:29.869Z,16.10
2023-03-19T02:14:57.583Z,16.10
2023-03-19T02:17:25.360Z,16.00
2023-03-19T02:19:58.913Z,16.00
2023-03-19T02:22:30.130Z,16.00
2023-03-19T02:25:03.743Z,16.00
2023-03-19T02:27:32.915Z,15.80
2023-03-19T02:30:02.843Z,15.70
2023-03-19T02:32:30.953Z,15.80
2023-03-19T02:34:58.672Z,15.80
2023-03-19T02:37:33.534Z,15.70
2023-03-19T02:40:05.501Z,15.60
2023-03-19T02:42:35.351Z,15.70
2023-03-19T02:45:03.216Z,15.70
2023-03-19T02:47:30.998Z,15.70
2023-03-19T02:49:58.713Z,15.70
2023-03-19T02:52:26.837Z,15.50
2023-03-19T02:54:54.570Z,15.40
2023-03-19T02:57:22.346Z,15.50
2023-03-19T02:59:51.518Z,15.50
2023-03-19T03:02:19.317Z,15.40
2023-03-19T03:04:47.083Z,15.50
2023-03-19T03:07:14.830Z,15.50
2023-03-19T03:09:42.655Z,15.50
2023-03-19T03:12:11.099Z,15.60
2023-03-19T03:14:38.844Z,15.60
2023-03-19T03:17:08.724Z,15.50
2023-03-19T03:19:36.675Z,15.50
2023-03-19T03:22:05.605Z,15.60
2023-03-19T03:24:33.395Z,15.70
2023-03-19T03:27:01.290Z,15.80
2023-03-19T03:29:29.248Z,15.70
2023-03-19T03:31:57.318Z,15.50
2023-03-19T03:34:26.463Z,15.50
2023-03-19T03:36:54.328Z,15.60
2023-03-19T03:39:22.536Z,15.60
2023-03-19T03:41:50.300Z,15.60
2023-03-19T03:44:18.144Z,15.40
2023-03-19T03:46:46.601Z,15.40
2023-03-19T03:49:14.379Z,15.20
2023-03-19T03:51:43.681Z,15.20
2023-03-19T03:54:11.441Z,15.20
2023-03-19T03:56:39.684Z,15.10
2023-03-19T03:59:07.534Z,15.10
2023-03-19T04:01:35.529Z,15.00
2023-03-19T04:04:03.732Z,15.10
2023-03-19T04:06:31.829Z,15.00
2023-03-19T04:09:00.983Z,15.20
2023-03-19T04:11:29.543Z,15.10
2023-03-19T04:13:57.842Z,15.20
2023-03-19T04:16:25.932Z,15.20
2023-03-19T04:18:53.776Z,15.20
2023-03-19T04:21:21.565Z,15.10
2023-03-19T04:23:49.328Z,15.10
2023-03-19T04:26:18.713Z,14.90
2023-03-19T04:28:46.467Z,14.90
2023-03-19T04:31:14.309Z,15.00
2023-03-19T04:33:42.493Z,15.00
2023-03-19T04:36:10.422Z,14.90
2023-03-19T04:38:38.200Z,14.80
2023-03-19T04:41:06.162Z,14.80
2023-03-19T04:43:35.233Z,14.80
2023-03-19T04:46:03.034Z,14.90
2023-03-19T04:48:30.786Z,14.90
2023-03-19T04:50:58.535Z,14.70
2023-03-19T04:53:26.242Z,14.70
2023-03-19T04:55:53.927Z,14.90
2023-03-19T04:58:22.243Z,14.80
2023-03-19T05:00:51.410Z,14.80
2023-03-19T05:03:19.198Z,14.80
2023-03-19T05:05:46.964Z,14.80
2023-03-19T05:08:14.783Z,14.80
2023-03-19T05:10:42.733Z,14.70
2023-03-19T05:13:10.559Z,14.80
2023-03-19T05:15:38.770Z,14.60
2023-03-19T05:18:08.633Z,14.50
2023-03-19T05:20:37.240Z,14.50
2023-03-19T05:23:06.335Z,14.70
2023-03-19T05:25:36.195Z,14.80
2023-03-19T05:28:04.436Z,14.80
2023-03-19T05:30:33.218Z,14.70
2023-03-19T05:33:02.233Z,14.60
2023-03-19T05:35:32.236Z,14.70
2023-03-19T05:38:00.348Z,14.60
2023-03-19T05:40:28.244Z,14.70
2023-03-19T05:42:55.983Z,14.60
2023-03-19T05:45:23.676Z,14.70
2023-03-19T05:47:51.412Z,14.50
2023-03-19T05:50:19.529Z,14.40
2023-03-19T05:52:48.702Z,14.00
2023-03-19T05:55:17.754Z,14.30
2023-03-19T05:57:45.766Z,14.20
2023-03-19T06:00:16.087Z,13.30
2023-03-19T06:02:44.631Z,13.70
2023-03-19T06:05:12.710Z,13.80
2023-03-19T06:07:40.812Z,13.80
2023-03-19T06:10:11.637Z,14.10
2023-03-19T06:12:39.441Z,14.20
2023-03-19T06:15:09.114Z,14.20
2023-03-19T06:17:44.712Z,14.40
2023-03-19T06:20:13.805Z,14.70
2023-03-19T06:22:41.693Z,14.80
2023-03-19T06:25:12.152Z,14.90
2023-03-19T06:27:40.224Z,15.10
2023-03-19T06:30:09.949Z,15.10
2023-03-19T06:32:40.176Z,15.20
2023-03-19T06:35:08.820Z,15.30
2023-03-19T06:41:33.568Z,14.90
2023-03-19T06:44:01.380Z,14.90
2023-03-19T06:46:29.077Z,15.10
2023-03-19T06:48:56.988Z,15.20
2023-03-19T06:51:27.635Z,15.30
2023-03-19T06:53:56.513Z,15.20
2023-03-19T06:56:24.216Z,15.40
2023-03-19T06:58:53.229Z,15.50
2023-03-19T07:01:21.725Z,15.60
2023-03-19T07:03:49.446Z,15.60
2023-03-19T07:06:17.148Z,15.60
2023-03-19T07:08:46.271Z,15.50
2023-03-19T07:11:14.846Z,15.40
2023-03-19T07:13:42.519Z,15.30
2023-03-19T07:16:11.716Z,15.30
2023-03-19T07:18:39.385Z,15.40
2023-03-19T07:21:07.078Z,15.20
2023-03-19T07:23:34.766Z,15.30
2023-03-19T07:26:02.534Z,15.20
2023-03-19T07:28:30.351Z,15.10
2023-03-19T07:30:58.070Z,15.10
2023-03-19T07:33:27.077Z,15.20
2023-03-19T07:35:54.822Z,15.50
2023-03-19T07:38:22.500Z,15.30
2023-03-19T07:41:01.490Z,15.20
2023-03-19T07:43:30.840Z,15.60
2023-03-19T07:45:58.655Z,15.70
2023-03-19T07:48:28.098Z,15.70
2023-03-19T07:50:55.801Z,15.80
2023-03-19T07:53:23.485Z,15.80
2023-03-19T07:55:51.333Z,15.80
2023-03-19T07:58:19.168Z,15.80
2023-03-19T08:00:47.385Z,15.80
2023-03-19T08:03:15.901Z,15.60
2023-03-19T08:05:44.903Z,15.60
2023-03-19T08:08:12.802Z,15.70
2023-03-19T08:10:40.767Z,15.80
2023-03-19T08:13:08.849Z,16.00
2023-03-19T08:15:37.107Z,16.00
2023-03-19T08:18:06.268Z,16.10
2023-03-19T08:20:34.185Z,16.20
2023-03-19T08:23:03.476Z,16.30
2023-03-19T08:25:32.575Z,16.10
2023-03-19T08:28:00.407Z,16.00
2023-03-19T08:30:28.696Z,16.00
2023-03-19T08:32:56.674Z,16.00
2023-03-19T08:35:26.874Z,16.20
2023-03-19T08:37:54.740Z,16.10
2023-03-19T08:40:24.330Z,16.10
2023-03-19T08:42:52.091Z,16.00
2023-03-19T08:45:20.723Z,16.10
2023-03-19T08:47:48.920Z,16.30
2023-03-19T08:50:17.440Z,16.50
2023-03-19T08:52:45.473Z,16.60
2023-03-19T08:55:13.321Z,16.80
2023-03-19T08:57:42.488Z,16.90
2023-03-19T09:00:11.403Z,17.00
2023-03-19T09:02:40.305Z,17.00
2023-03-19T09:05:08.613Z,17.00
2023-03-19T09:07:36.284Z,17.10
2023-03-19T09:10:04.166Z,17.00
2023-03-19T09:12:31.855Z,17.30
2023-03-19T09:15:00.844Z,17.30
2023-03-19T09:17:28.622Z,17.20
2023-03-19T09:19:56.280Z,17.50
2023-03-19T09:22:23.960Z,17.60
2023-03-19T09:24:52.083Z,17.50
2023-03-19T09:27:21.018Z,17.30
2023-03-19T09:29:48.689Z,17.50
2023-03-19T09:32:17.751Z,17.90
2023-03-19T09:34:46.458Z,17.60
2023-03-19T09:37:14.675Z,17.80
2023-03-19T09:39:42.969Z,18.10
2023-03-19T09:42:30.495Z,18.20
2023-03-19T09:44:58.902Z,18.30
2023-03-19T09:47:33.235Z,18.40
2023-03-19T09:50:04.009Z,18.00
2023-03-19T09:52:38.933Z,18.30
2023-03-19T09:55:17.178Z,18.60
2023-03-19T09:57:45.100Z,18.80
2023-03-19T10:00:22.289Z,18.90
2023-03-19T10:02:56.382Z,18.80
2023-03-19T10:05:31.134Z,19.00
2023-03-19T10:08:23.262Z,19.10
2023-03-19T10:23:30.885Z,19.50
2023-03-19T10:31:25.753Z,19.80
2023-03-19T10:34:43.077Z,19.80
2023-03-19T10:38:29.362Z,19.90
2023-03-19T10:42:01.810Z,20.00
2023-03-19T10:55:49.449Z,20.40
2023-03-19T10:58:53.506Z,20.60
2023-03-19T11:02:31.772Z,20.50
2023-03-19T11:05:40.140Z,20.50
2023-03-19T11:08:37.267Z,20.90
2023-03-19T11:12:00.685Z,20.80
2023-03-19T11:14:52.690Z,21.00
2023-03-19T11:18:23.859Z,21.20
2023-03-19T11:21:48.322Z,21.00
2023-03-19T11:32:42.072Z,21.40
2023-03-19T11:36:20.221Z,21.30
2023-03-19T11:39:34.612Z,21.50
2023-03-19T11:43:04.162Z,21.20
2023-03-19T11:46:21.882Z,21.20
2023-03-19T11:53:01.533Z,21.50
2023-03-19T11:56:09.092Z,21.50
2023-03-19T12:06:36.686Z,21.80
2023-03-19T12:09:54.266Z,21.80
2023-03-19T12:20:26.755Z,22.00
2023-03-19T12:23:05.883Z,21.60
2023-03-19T12:25:53.468Z,22.00
2023-03-19T12:28:27.712Z,21.60
2023-03-19T12:31:12.248Z,21.50
2023-03-19T12:36:39.219Z,21.40
2023-03-19T12:55:06.870Z,21.80
2023-03-19T13:01:28.585Z,22.10
2023-03-19T13:16:28.689Z,22.00
2023-03-19T13:24:09.553Z,21.90
2023-03-19T13:27:31.392Z,21.60
2023-03-19T13:34:36.864Z,21.70
2023-03-19T13:37:13.806Z,21.60
2023-03-19T13:39:46.609Z,21.70
2023-03-19T13:42:44.131Z,21.80
2023-03-19T13:45:36.240Z,22.00
2023-03-19T13:48:36.863Z,21.70
2023-03-19T13:51:08.318Z,21.60
2023-03-19T13:53:44.581Z,21.80
2023-03-19T13:56:29.614Z,21.80
2023-03-19T13:59:26.001Z,22.00
2023-03-19T14:01:56.191Z,22.10
2023-03-19T14:04:31.418Z,22.20
2023-03-19T14:07:13.075Z,22.20
2023-03-19T14:09:44.999Z,22.20
2023-03-19T14:12:25.810Z,22.20
2023-03-19T14:14:58.117Z,21.90
2023-03-19T14:17:29.690Z,22.00
2023-03-19T14:20:08.969Z,22.00
2023-03-19T14:22:40.985Z,22.00
2023-03-19T14:25:19.467Z,22.10
2023-03-19T14:27:54.991Z,21.90
2023-03-19T14:30:35.942Z,22.00
2023-03-19T14:33:17.551Z,22.10
2023-03-19T14:35:50.227Z,22.10
2023-03-19T14:38:34.705Z,22.10
2023-03-19T14:41:11.261Z,22.10
2023-03-19T14:44:01.439Z,22.10
2023-03-19T14:46:40.067Z,22.00
2023-03-19T14:49:46.116Z,21.80
2023-03-19T14:52:22.239Z,21.90
2023-03-19T14:55:00.604Z,22.30
2023-03-19T14:57:33.932Z,22.30
2023-03-19T15:00:05.886Z,22.10
2023-03-19T15:02:38.446Z,22.10
2023-03-19T15:05:08.507Z,22.10
2023-03-19T15:07:39.484Z,22.20
2023-03-19T15:10:14.691Z,22.10
2023-03-19T15:13:08.917Z,22.50
2023-03-19T15:15:52.199Z,22.50
2023-03-19T15:18:20.922Z,22.40
2023-03-19T15:20:54.270Z,22.50
2023-03-19T15:23:27.717Z,22.30
2023-03-19T15:25:58.132Z,22.30
2023-03-19T15:28:28.128Z,22.40
2023-03-19T15:31:08.567Z,22.00
2023-03-19T15:33:46.746Z,21.80
2023-03-19T15:36:22.103Z,22.00
2023-03-19T15:38:53.247Z,21.90
2023-03-19T15:41:23.364Z,21.90
2023-03-19T15:43:51.952Z,21.60
2023-03-19T15:46:26.369Z,21.70
2023-03-19T15:48:58.481Z,21.70
2023-03-19T15:51:27.849Z,21.70
2023-03-19T15:53:56.777Z,21.70
2023-03-19T15:56:25.476Z,21.70
2023-03-19T15:58:56.063Z,21.60
2023-03-19T16:01:25.670Z,21.60
2023-03-19T16:03:59.759Z,21.70
2023-03-19T16:06:30.147Z,21.70
2023-03-19T16:09:14.404Z,21.90
2023-03-19T16:11:44.529Z,21.70
2023-03-19T16:14:23.776Z,21.70
2023-03-19T16:16:54.491Z,21.80
2023-03-19T16:19:31.795Z,21.80
2023-03-19T16:22:00.479Z,22.00
2023-03-19T16:24:32.746Z,21.70
2023-03-19T16:27:03.782Z,21.60
2023-03-19T16:29:35.305Z,21.70
2023-03-19T16:32:14.334Z,21.80
2023-03-19T16:34:46.553Z,22.00
2023-03-19T16:37:35.416Z,22.10
2023-03-19T16:40:05.586Z,22.40
2023-03-19T16:42:41.002Z,22.30
2023-03-19T16:45:23.392Z,22.50
2023-03-19T16:47:54.028Z,22.50
2023-03-19T16:50:29.200Z,22.50
2023-03-19T16:52:58.428Z,22.60
2023-03-19T16:55:28.757Z,22.70
2023-03-19T16:57:59.398Z,22.80
2023-03-19T17:00:30.708Z,22.80
2023-03-19T17:03:01.641Z,22.90
2023-03-19T17:05:30.527Z,22.90
2023-03-19T17:07:58.374Z,22.90
2023-03-19T17:10:30.157Z,22.90
2023-03-19T17:12:59.320Z,22.90
2023-03-19T17:15:30.760Z,22.90
2023-03-19T17:18:00.304Z,22.90
2023-03-19T17:20:32.819Z,22.90
2023-03-19T17:23:00.571Z,22.60
2023-03-19T17:25:28.529Z,22.70
2023-03-19T17:27:56.415Z,22.60
2023-03-19T17:30:24.094Z,22.70
2023-03-19T17:32:51.930Z,22.70
2023-03-19T17:35:22.550Z,22.60
2023-03-19T17:37:51.462Z,22.60
2023-03-19T17:40:24.798Z,22.60
2023-03-19T17:42:52.663Z,22.40
2023-03-19T17:45:22.862Z,22.40
2023-03-19T17:47:53.331Z,22.50
2023-03-19T17:50:25.373Z,22.40
2023-03-19T17:52:53.329Z,22.40
2023-03-19T17:55:22.726Z,22.40
2023-03-19T17:57:51.535Z,22.40
2023-03-19T18:00:21.029Z,22.30
2023-03-19T18:02:51.140Z,22.20
2023-03-19T18:05:20.257Z,22.20
2023-03-19T18:07:51.010Z,22.10
2023-03-19T18:10:20.604Z,22.10
2023-03-19T18:12:49.306Z,22.10
2023-03-19T18:15:18.259Z,22.00
2023-03-19T18:17:48.452Z,22.00
2023-03-19T18:20:18.906Z,22.00
2023-03-19T18:22:46.659Z,21.90
2023-03-19T18:25:20.713Z,22.00
2023-03-19T18:27:49.276Z,21.90
2023-03-19T18:30:19.176Z,21.90
2023-03-19T18:32:50.088Z,21.90
2023-03-19T18:35:19.846Z,22.00
2023-03-19T18:37:49.088Z,22.00
2023-03-19T18:40:21.541Z,22.00
2023-03-19T18:42:50.241Z,21.90
2023-03-19T18:45:19.327Z,21.80
2023-03-19T18:47:48.867Z,21.70
2023-03-19T18:50:18.730Z,21.60
2023-03-19T18:52:47.095Z,21.60
2023-03-19T18:55:15.530Z,21.30
2023-03-19T18:57:53.514Z,21.10
2023-03-19T19:00:24.431Z,21.00
2023-03-19T19:02:53.378Z,21.10
2023-03-19T19:05:23.705Z,20.80
2023-03-19T19:07:51.919Z,20.50
2023-03-19T19:10:19.830Z,20.40
2023-03-19T19:12:52.508Z,20.70
2023-03-19T19:15:24.695Z,20.50
2023-03-19T19:17:53.342Z,20.50
2023-03-19T19:20:23.074Z,20.40
2023-03-19T19:22:51.620Z,20.50
2023-03-19T19:25:20.743Z,20.40
2023-03-19T19:27:54.616Z,20.20
2023-03-19T19:30:23.564Z,20.30
2023-03-19T19:32:51.382Z,20.30
2023-03-19T19:35:22.931Z,20.30
2023-03-19T19:37:51.401Z,20.10
2023-03-19T19:40:21.726Z,20.00
2023-03-19T19:42:53.132Z,20.00
2023-03-19T19:45:28.781Z,19.90
2023-03-19T19:47:57.755Z,19.90
2023-03-19T19:50:27.766Z,19.80
2023-03-19T19:52:56.452Z,19.80
2023-03-19T19:55:26.080Z,19.50
2023-03-19T19:57:56.947Z,19.40
2023-03-19T20:00:27.018Z,19.50
2023-03-19T20:02:55.644Z,19.40
2023-03-19T20:05:25.280Z,19.50
2023-03-19T20:07:54.935Z,19.40
2023-03-19T20:10:23.951Z,19.40
2023-03-19T20:12:53.510Z,19.40
2023-03-19T20:15:24.680Z,19.50
2023-03-19T20:17:56.055Z,19.50
2023-03-19T20:20:25.860Z,19.60
2023-03-19T20:22:55.066Z,19.50
2023-03-19T20:25:25.293Z,19.60
2023-03-19T20:27:56.556Z,19.60
2023-03-19T20:30:29.001Z,19.30
2023-03-19T20:32:57.966Z,19.40
2023-03-19T20:35:27.838Z,19.30
2023-03-19T20:37:58.042Z,19.50
2023-03-19T20:40:30.171Z,19.50
2023-03-19T20:42:58.257Z,19.40
2023-03-19T20:45:31.572Z,19.50
2023-03-19T20:47:59.618Z,19.00
2023-03-19T20:50:29.804Z,19.10
2023-03-19T20:53:01.097Z,19.00
2023-03-19T20:55:31.186Z,19.20
2023-03-19T20:57:59.452Z,19.20
2023-03-19T21:00:30.866Z,19.20
2023-03-19T21:03:00.402Z,19.30
2023-03-19T21:05:34.915Z,19.00
2023-03-19T21:08:04.867Z,19.10
2023-03-19T21:10:35.670Z,19.00
2023-03-19T21:13:03.887Z,19.10
2023-03-19T21:15:34.016Z,19.00
2023-03-19T21:18:02.302Z,18.90
2023-03-19T21:20:32.721Z,18.80
2023-03-19T21:23:08.773Z,18.80
2023-03-19T21:25:37.414Z,18.70
2023-03-19T21:28:07.904Z,18.80
2023-03-19T21:30:47.167Z,18.80
2023-03-19T21:33:28.108Z,18.80
2023-03-19T21:35:57.667Z,18.80
2023-03-19T21:38:33.130Z,18.70
2023-03-19T21:41:03.042Z,18.80
2023-03-19T21:43:35.230Z,18.80
2023-03-19T21:46:22.836Z,18.80
2023-03-19T21:48:54.870Z,18.80
2023-03-19T21:51:25.114Z,18.80
2023-03-19T21:53:55.810Z,18.80
2023-03-19T21:56:25.584Z,18.80
2023-03-19T21:58:58.580Z,18.90
2023-03-19T22:01:27.904Z,18.90
2023-03-19T22:03:59.697Z,18.90
2023-03-19T22:06:28.139Z,18.90
2023-03-19T22:11:39.737Z,18.70
2023-03-19T22:14:09.068Z,18.60
2023-03-19T22:16:38.300Z,18.70
2023-03-19T22:19:06.272Z,18.60
2023-03-19T22:21:35.554Z,18.80
2023-03-19T22:24:07.511Z,18.70
2023-03-19T22:26:37.120Z,18.70
2023-03-19T22:29:09.615Z,18.60
2023-03-19T22:31:39.022Z,18.50
2023-03-19T22:34:13.105Z,18.50
2023-03-19T22:36:40.898Z,18.50
2023-03-19T22:39:13.883Z,18.40
2023-03-19T22:41:45.578Z,18.40
2023-03-19T22:44:20.757Z,18.30
2023-03-19T22:46:57.894Z,18.40
2023-03-19T22:49:26.001Z,18.20
2023-03-19T22:51:57.946Z,18.10
2023-03-19T22:54:26.173Z,18.20
2023-03-19T22:57:04.848Z,18.20
2023-03-19T22:59:32.798Z,18.30
2023-03-19T23:02:03.587Z,18.20
2023-03-19T23:04:33.403Z,18.00
2023-03-19T23:07:04.613Z,18.10
2023-03-19T23:09:35.796Z,18.10
2023-03-19T23:12:05.614Z,18.00
2023-03-19T23:14:33.452Z,18.10
2023-03-19T23:17:07.441Z,18.10
2023-03-19T23:19:37.607Z,17.90
2023-03-19T23:22:09.641Z,17.90
2023-03-19T23:24:37.726Z,18.00
2023-03-19T23:27:18.087Z,17.90
2023-03-19T23:30:00.048Z,17.70
2023-03-19T23:32:33.938Z,17.80
2023-03-19T23:35:02.242Z,17.90
2023-03-19T23:37:39.292Z,18.00
2023-03-19T23:40:23.688Z,18.20
2023-03-19T23:42:58.076Z,18.20
2023-03-19T23:45:38.395Z,18.30
2023-03-19T23:48:12.538Z,18.20
2023-03-19T23:50:40.682Z,18.10
2023-03-19T23:53:21.969Z,18.00
2023-03-19T23:55:52.298Z,18.10
2023-03-19T23:58:23.144Z,18.00
